Flight Track Log - Related Links

Times and Time Zones

All times are in EDT time to prevent confusion due to time zone crossing. See the JBU1329 flight status page for this flight to view local times or setup timezone preferences in your user account.

Time Position Orientation Groundspeed Altitude Reporting Facility
EDT Latitude Longitude Course Direction KTS MPH feet Rate Location/Type
Sun 08:22:36 42.3500 -71.0167 228° Southwest 151 174 700  Level KA90
Sun 08:23:18 42.3500 -71.0500 270° West 165 190 2,100 2,272 Climbing KA90
Sun 08:24:19 42.3000 -71.1000 216° Southwest 234 269 4,600 3,166 Climbing KA90
Sun 08:25:00 42.4142 -70.7500 180° South  Level FlightAware
Sun 08:26:00 42.3333 -70.7233 172° South  Level FlightAware
Sun 08:26:01 42.2544 -71.2481 247° West 246 283 10,700  Level Boston Center
Sun 08:27:00 42.2653 -70.7688 228° Southwest  Level FlightAware
Sun 08:27:15 42.2367 -71.3381 255° West 265 305 12,600  Level Boston Center
Sun 08:28:13 42.2086 -71.4731 254° West 311 358 16,300 3,025 Climbing Boston Center
Sun 08:29:14 42.1825 -71.5856 253° West 316 364 18,600 2,410 Climbing Boston Center
Sun 08:30:15 42.1564 -71.7092 254° West 328 377 21,200 2,471 Climbing Boston Center
Sun 08:31:13 42.1319 -71.8269 254° West 328 377 23,500 2,085 Climbing Boston Center
Sun 08:32:13 42.1033 -71.9419 251° West 328 377 25,300 1,686 Climbing Boston Center
Sun 08:33:14 42.0497 -72.0542 237° Southwest 333 383 26,900 1,426 Climbing Boston Center
Sun 08:34:15 41.9936 -72.1692 237° Southwest 358 412 28,200 1,388 Climbing Boston Center
Sun 08:35:15 41.9375 -72.2839 237° Southwest 370 426 29,700 1,475 Climbing Boston Center
Sun 08:36:13 41.8794 -72.3983 236° Southwest 375 432 31,100 1,169 Climbing Boston Center
Sun 08:37:13 41.8231 -72.5125 236° Southwest 375 432 32,000 443 Climbing Boston Center
Sun 08:38:15 41.7625 -72.6350 236° Southwest 380 437 32,000  Level Boston Center
Sun 08:39:15 41.6997 -72.7569 235° Southwest 391 450 32,000  Level Boston Center
Sun 08:40:14 41.6408 -72.8761 237° Southwest 391 450 32,000  Level Boston Center
Sun 08:41:13 41.5800 -73.0006 237° Southwest 396 456 32,000  Level Boston Center
Sun 08:43:23 41.4478 -73.2594 236° Southwest 407 468 32,000  Level New Center
Sun 08:44:24 41.3847 -73.3844 236° Southwest 412 474 32,000  Level New Center
Sun 08:45:24 41.3214 -73.5089 236° Southwest 412 474 32,000  Level New Center
Sun 08:46:23 41.2539 -73.6331 234° Southwest 412 474 32,000  Level New Center
Sun 08:47:24 41.1844 -73.7486 231° Southwest 412 474 32,000  Level New Center
Sun 08:48:22 41.1169 -73.8639 232° Southwest 412 474 32,000  Level New Center
Sun 08:49:22 41.0472 -73.9792 231° Southwest 407 468 32,000  Level New Center
Sun 08:50:23 40.9772 -74.0967 232° Southwest 407 468 32,000 -446 Level New Center
Sun 08:51:23 40.8989 -74.2192 230° Southwest 407 468 31,100 -1,488 Descending New Center
Sun 08:52:24 40.8308 -74.3308 231° Southwest 407 468 29,000 -1,537 Descending New Center
Sun 08:53:24 40.7650 -74.4397 231° Southwest 402 463 28,000 -610 Descending New Center
Sun 08:54:22 40.6992 -74.5483 231° Southwest 397 457 27,800 -555 Descending New Center
Sun 08:55:23 40.6353 -74.6569 232° Southwest 392 451 26,900 -885 Descending New Center
Sun 08:56:24 40.5736 -74.7547 230° Southwest 387 445 26,000 -893 Descending New Center
Sun 08:57:24 40.5014 -74.8569 227° Southwest 387 445 25,100 -1,119 Descending New Center
Sun 08:58:22 40.4311 -74.9592 228° Southwest 387 445 23,800 -1,866 Descending New Center
Sun 08:59:23 40.3608 -75.0583 227° Southwest 382 440 21,400 -2,430 Descending New Center
Sun 09:00:23 40.2858 -75.1653 227° Southwest 371 427 18,900 -1,686 Descending New Center
Sun 09:01:24 40.2200 -75.2561 227° Southwest 358 412 18,000 -446 Descending New Center
Sun 09:02:24 40.1583 -75.3392 226° Southwest 358 412 18,000  Level New Center
Sun 09:03:23 40.0836 -75.4400 226° Southwest 358 412 18,000  Level New Center
Sun 09:04:23 40.0261 -75.5203 227° Southwest 358 412 18,000  Level New Center
Sun 09:05:23 39.9533 -75.6208 227° Southwest 358 412 18,000  Level New Center
Sun 09:06:22 39.8975 -75.7089 230° Southwest 358 412 18,000 -353 Level New Center
Sun 09:07:22 39.8408 -75.8186 236° Southwest 347 399 17,300 -1,349 Descending New Center
Sun 09:09:51 39.7167 -76.0333 233° Southwest 269 310 13,300 -1,479 Descending Potomac TRACON
Sun 09:10:57 39.6833 -76.1333 247° West 266 306 12,000 -1,238 Descending Potomac TRACON
Sun 09:11:57 39.6167 -76.2000 218° Southwest 275 316 10,700 -1,526 Descending Potomac TRACON
Sun 09:12:51 39.5667 -76.2500 218° Southwest 266 306 9,100 -1,600 Descending Potomac TRACON
Sun 09:13:57 39.5167 -76.3167 226° Southwest 258 297 7,500 -1,461 Descending Potomac TRACON
Sun 09:14:46 39.4667 -76.3500 207° Southwest 251 289 6,300 -1,304 Descending Potomac TRACON
Sun 09:15:52 39.4000 -76.4000 210° Southwest 258 297 5,000 -1,095 Descending Potomac TRACON
Sun 09:16:52 39.3167 -76.4000 180° South 259 298 4,000 -526 Descending Potomac TRACON
Sun 09:17:46 39.2667 -76.4167 194° South 263 303 4,000  Level Potomac TRACON
Sun 09:18:40 39.2000 -76.4167 180° South 261 300 4,000  Level Potomac TRACON
Sun 09:19:40 39.1333 -76.4167 180° South 243 280 4,000  Level Potomac TRACON
Sun 09:20:35 39.0667 -76.4333 191° South 218 251 4,000 -446 Level Potomac TRACON
Sun 09:21:41 39.0333 -76.4833 229° Southwest 201 231 3,100 -667 Descending Potomac TRACON
Sun 09:22:41 39.0333 -76.5500 270° West 182 209 2,600 -579 Descending Potomac TRACON
Sun 09:23:35 39.0667 -76.5833 322° Northwest 163 188 2,000 -526 Descending Potomac TRACON
Sun 09:24:35 39.1000 -76.6167 322° Northwest 145 167 1,600 -470 Descending Potomac TRACON
Sun 09:25:30 39.1333 -76.6333 339° North 130 150 1,100 -545 Descending Potomac TRACON

Login

Don't have an account? Register now (free) for customized features, flight alerts, and more!